Rowlett, Texas
Current Conditions -  °F | °C
As of 8:55 PM on Wednesday 26 Nov 2014 (Local Time) from KF46 Reporting Station
Clear Clear  
Wind Chill: 47°   Ceiling: Unl
Heat Index: 49°   Visibility: 10mi
Dew Point: 36°   Wind: 5mph
Humidity: 62%   Direction: 20°NNE
Pressure: 30.31"   Gusts: NA
Location:  32.9°N, 96.57°W
Report Text: KF46 270255Z AUTO 02004KT 10SM CLR 09/02 A3031 RMK AO2 T00920022
Loading
Personal Weather Stations






























Interactive Weather Map New forecast layout! Learn more

10-Day Weather Forecast

Advertisements
Track Severe Weather on mobile